Time;durP1;ratioP1;P1;durP2;ratioP2;P2;SDS_P1;SDS_P2;PMS_P1;PMS_P2;Temp;Humidity;BMP_temperature;BMP_pressure;BME280_temperature;BME280_humidity;BME280_pressure;Samples;Min_cycle;Max_cycle;Signal;HPM_P1;HPM_P2
2021/01/13 00:02:20;766003.00;2.55;1321.90;89806.00;0.30;155.97;;;;;9.50;1.00;;;;;;2253607;61;1020;-87
2021/01/13 00:04:47;722560.00;2.41;1246.38;87595.00;0.29;152.15;;;;;9.60;1.00;;;;;;2260171;61;1981;-87
2021/01/13 00:07:15;744393.00;2.48;1284.31;113033.00;0.38;196.06;;;;;9.90;1.00;;;;;;2259317;61;1009;-86
2021/01/13 00:09:41;488314.00;1.63;841.71;69729.00;0.23;121.29;;;;;10.20;1.00;;;;;;2261183;61;1308;-87
2021/01/13 00:12:08;633756.00;2.11;1092.54;87497.00;0.29;151.99;;;;;10.40;1.00;;;;;;2268216;61;1020;-87
2021/01/13 00:14:35;474424.00;1.58;817.80;73944.00;0.25;128.58;;;;;10.50;1.00;;;;;;2268217;61;1025;-87
2021/01/13 00:17:01;517694.00;1.73;892.29;87241.00;0.29;151.54;;;;;10.60;1.00;;;;;;2264148;61;1008;-86
2021/01/13 00:19:28;487982.00;1.63;841.14;85114.00;0.28;147.87;;;;;10.70;1.00;;;;;;2264199;61;1287;-86
2021/01/13 00:21:55;518791.00;1.73;894.18;86774.00;0.29;150.74;;;;;10.60;1.00;;;;;;2257543;61;1021;-87
2021/01/13 00:24:24;506049.00;1.69;872.24;90934.00;0.30;157.92;;;;;10.80;1.00;;;;;;2257966;61;1997;-87
2021/01/13 00:26:55;637509.00;2.13;1099.03;86606.00;0.29;150.45;;;;;10.90;1.00;;;;;;2258243;61;999;-87
2021/01/13 00:29:22;686025.00;2.29;1183.01;93018.00;0.31;161.52;;;;;11.00;1.00;;;;;;2264075;61;1315;-86
2021/01/13 00:31:49;569777.00;1.90;982.06;87642.00;0.29;152.24;;;;;11.00;1.00;;;;;;2257517;61;1005;-86
2021/01/13 00:34:16;439197.00;1.46;757.20;86717.00;0.29;150.64;;;;;11.00;1.00;;;;;;2265409;61;1033;-87
2021/01/13 00:36:43;610138.00;2.03;1051.73;81732.00;0.27;142.03;;;;;10.60;1.00;;;;;;2271757;61;1016;-87
2021/01/13 00:39:10;717602.00;2.39;1237.78;95199.00;0.32;165.28;;;;;9.90;1.00;;;;;;2272219;61;1442;-87
2021/01/13 00:41:39;811668.00;2.71;1401.48;134023.00;0.45;232.27;;;;;9.90;1.00;;;;;;2272061;61;1032;-87
2021/01/13 00:44:07;616687.00;2.06;1063.04;86128.00;0.29;149.62;;;;;10.20;1.00;;;;;;2265506;61;1009;-87
2021/01/13 00:46:38;716596.00;2.39;1236.03;90303.00;0.30;156.83;;;;;10.40;1.00;;;;;;2272760;61;1999;-86
2021/01/13 00:49:05;537713.00;1.79;926.78;88348.00;0.29;153.46;;;;;10.10;1.00;;;;;;2269529;61;1433;-86
2021/01/13 00:51:36;694638.00;2.32;1197.94;91969.00;0.31;159.71;;;;;9.30;1.00;;;;;;2276614;61;993;-86
2021/01/13 00:54:05;567651.00;1.89;978.40;0.00;0.00;0.62;;;;;9.00;1.00;;;;;;2276652;61;1029;-86
2021/01/13 00:56:32;504294.00;1.68;869.22;13279.00;0.04;23.63;;;;;9.20;1.00;;;;;;2276633;61;940;-85
2021/01/13 00:58:59;301624.00;1.01;520.71;0.00;0.00;0.62;;;;;9.70;1.00;;;;;;2275952;61;1451;-86
2021/01/13 01:01:27;287342.00;0.96;496.16;0.00;0.00;0.62;;;;;10.00;1.00;;;;;;2269518;61;1007;-86
2021/01/13 01:03:54;342778.00;1.14;591.45;0.00;0.00;0.62;;;;;10.40;1.00;;;;;;2276574;61;925;-86
2021/01/13 01:06:20;139802.00;0.47;242.23;0.00;0.00;0.62;;;;;10.70;1.00;;;;;;2269426;61;2013;-86
2021/01/13 01:08:47;425834.00;1.42;734.22;0.00;0.00;0.62;;;;;10.90;1.00;;;;;;2276614;61;949;-87
2021/01/13 01:11:17;355578.00;1.19;613.45;0.00;0.00;0.62;;;;;11.10;1.00;;;;;;2269447;61;1380;-86
2021/01/13 01:13:44;242630.00;0.81;419.27;0.00;0.00;0.62;;;;;11.20;1.00;;;;;;2276413;61;998;-86
2021/01/13 01:16:11;248283.00;0.83;429.00;0.00;0.00;0.62;;;;;11.10;1.00;;;;;;2266177;61;1027;-87
2021/01/13 01:18:37;614398.00;2.05;1059.09;0.00;0.00;0.62;;;;;10.80;1.00;;;;;;2269483;61;1046;-87
2021/01/13 01:21:07;357201.00;1.19;616.24;0.00;0.00;0.62;;;;;10.50;1.00;;;;;;2276520;61;1265;-87
2021/01/13 01:23:33;296492.00;0.99;511.89;0.00;0.00;0.62;;;;;10.30;1.00;;;;;;2276556;61;1009;-87
2021/01/13 01:26:00;355792.00;1.19;613.82;0.00;0.00;0.62;;;;;10.10;1.00;;;;;;2276488;61;1984;-87
2021/01/13 01:28:27;604186.00;2.01;1041.45;82231.00;0.27;142.89;;;;;10.20;1.00;;;;;;2276548;61;1008;-87
2021/01/13 01:30:53;583201.00;1.94;1005.22;86811.00;0.29;150.80;;;;;10.30;1.00;;;;;;2269372;61;1457;-87
2021/01/13 01:33:21;410504.00;1.37;707.86;82124.00;0.27;142.71;;;;;10.30;1.00;;;;;;2276528;61;1002;-86
2021/01/13 01:35:47;545826.00;1.82;940.76;81825.00;0.27;142.19;;;;;10.00;1.00;;;;;;2269413;61;1050;-86
2021/01/13 01:38:15;470477.00;1.57;811.01;84018.00;0.28;145.98;;;;;9.80;1.00;;;;;;2276513;61;1034;-86
2021/01/13 01:40:41;520079.00;1.73;896.40;88399.00;0.29;153.54;;;;;9.50;1.00;;;;;;2276461;61;1332;-87
2021/01/13 01:43:08;523271.00;1.74;901.90;76442.00;0.25;132.89;;;;;9.70;1.00;;;;;;2276505;61;1013;-86
2021/01/13 01:45:35;475242.00;1.58;819.21;84975.00;0.28;147.63;;;;;9.90;1.00;;;;;;2269433;61;1992;-86
2021/01/13 01:48:26;508404.00;1.69;876.29;88553.00;0.30;153.81;;;;;9.50;1.00;;;;;;2276554;61;1028;-88
2021/01/13 01:50:57;41951.00;0.14;73.26;0.00;0.00;0.62;;;;;9.50;1.00;;;;;;2269424;61;1353;-86
2021/01/13 01:53:40;164836.00;0.55;285.37;0.00;0.00;0.62;;;;;9.60;1.00;;;;;;2276533;61;1013;-86
2021/01/13 01:56:17;21082.00;0.07;37.14;0.00;0.00;0.62;;;;;9.80;1.00;;;;;;2267902;61;1009;-86
2021/01/13 01:58:48;0.00;0.00;0.62;0.00;0.00;0.62;;;;;10.10;1.00;;;;;;2267990;61;962;-86
2021/01/13 02:01:19;197130.00;0.66;340.98;0.00;0.00;0.62;;;;;10.40;1.00;;;;;;2264523;61;1489;-86
2021/01/13 02:03:49;164395.00;0.55;284.61;0.00;0.00;0.62;;;;;10.10;1.00;;;;;;2264558;61;991;-87
2021/01/13 02:06:18;309831.00;1.03;534.82;0.00;0.00;0.62;;;;;9.50;1.00;;;;;;2259818;61;2019;-86
2021/01/13 02:08:45;294633.00;0.98;508.69;0.00;0.00;0.62;;;;;9.60;1.00;;;;;;2250007;61;996;-86
2021/01/13 02:11:16;575928.00;1.92;992.67;135216.00;0.45;234.32;;;;;9.80;1.00;;;;;;2259792;61;1318;-86
2021/01/13 02:13:43;268541.00;0.90;463.84;0.00;0.00;0.62;;;;;9.70;1.00;;;;;;2262478;61;1029;-87
2021/01/13 02:16:13;466324.00;1.55;803.86;86654.00;0.29;150.53;;;;;9.70;1.00;;;;;;2255823;61;975;-87
2021/01/13 02:18:42;436306.00;1.45;752.23;90615.00;0.30;157.37;;;;;10.00;1.00;;;;;;2255912;61;926;-86
2021/01/13 02:21:15;494055.00;1.65;851.59;88961.00;0.30;154.51;;;;;10.30;1.00;;;;;;2243880;62;1343;-87
2021/01/13 02:23:47;274608.00;0.92;474.27;86412.00;0.29;150.11;;;;;10.60;1.00;;;;;;2244353;61;1778;-86
2021/01/13 02:26:54;197652.00;0.66;341.88;87438.00;0.29;151.88;;;;;10.80;1.00;;;;;;2251810;61;1928;-85
2021/01/13 02:29:28;257379.00;0.86;444.64;79082.00;0.26;137.45;;;;;11.00;1.00;;;;;;2251348;61;1297;-87
2021/01/13 02:32:13;41761.00;0.14;72.94;0.00;0.00;0.62;;;;;11.10;1.00;;;;;;2251903;61;1030;-85
2021/01/13 02:34:58;254622.00;0.85;439.90;84469.00;0.28;146.76;;;;;10.90;1.00;;;;;;2253838;61;953;-86
2021/01/13 02:37:44;427363.00;1.42;736.85;95906.00;0.32;166.50;;;;;10.70;1.00;;;;;;2257245;61;981;-86
2021/01/13 02:40:16;197692.00;0.66;341.95;0.00;0.00;0.62;;;;;10.30;1.00;;;;;;2268647;61;1464;-87
2021/01/13 02:43:05;267741.00;0.89;462.46;0.00;0.00;0.62;;;;;10.30;1.00;;;;;;2276346;61;1163;-86
2021/01/13 02:45:36;24509.00;0.08;43.08;0.00;0.00;0.62;;;;;10.00;1.00;;;;;;2276375;61;1982;-86
2021/01/13 02:48:20;0.00;0.00;0.62;0.00;0.00;0.62;;;;;10.00;1.00;;;;;;2267848;61;971;-87
2021/01/13 02:50:54;43564.00;0.15;76.05;0.00;0.00;0.62;;;;;10.20;1.00;;;;;;2267630;61;1318;-85
2021/01/13 02:53:50;0.00;0.00;0.62;0.00;0.00;0.62;;;;;10.40;1.00;;;;;;2267857;61;918;-86
2021/01/13 02:56:25;0.00;0.00;0.62;0.00;0.00;0.62;;;;;10.50;1.00;;;;;;2267104;61;950;-86
2021/01/13 02:59:05;124640.00;0.42;216.09;0.00;0.00;0.62;;;;;10.70;1.00;;;;;;2267804;61;1357;-86
2021/01/13 03:01:37;14391.00;0.05;25.56;0.00;0.00;0.62;;;;;10.90;1.00;;;;;;2261401;61;1001;-86
2021/01/13 03:04:04;100447.00;0.33;174.34;0.00;0.00;0.62;;;;;11.00;1.00;;;;;;2268518;61;1129;-86
2021/01/13 03:06:37;13447.00;0.04;23.92;0.00;0.00;0.62;;;;;10.90;1.00;;;;;;2267569;61;1924;-85
2021/01/13 03:09:05;4058.00;0.01;7.65;0.00;0.00;0.62;;;;;10.60;1.00;;;;;;2276911;61;1441;-86
2021/01/13 03:11:32;0.00;0.00;0.62;0.00;0.00;0.62;;;;;10.50;1.00;;;;;;2269934;61;946;-87
2021/01/13 03:14:10;17356.00;0.06;30.69;0.00;0.00;0.62;;;;;10.30;1.00;;;;;;2268429;61;1702;-86
2021/01/13 03:16:40;5484.00;0.02;10.12;0.00;0.00;0.62;;;;;10.30;1.00;;;;;;2268456;61;1009;-86
2021/01/13 03:19:19;0.00;0.00;0.62;0.00;0.00;0.62;;;;;10.30;1.00;;;;;;2268463;61;1428;-86
2021/01/13 03:21:55;88169.00;0.29;153.15;0.00;0.00;0.62;;;;;10.20;1.00;;;;;;2268486;61;1043;-86
2021/01/13 03:24:35;38751.00;0.13;67.73;0.00;0.00;0.62;;;;;9.40;1.00;;;;;;2268466;61;1156;-86
2021/01/13 03:27:03;40050.00;0.13;69.97;0.00;0.00;0.62;;;;;9.10;1.00;;;;;;2268470;61;1122;-86
2021/01/13 03:29:33;48570.00;0.16;84.71;0.00;0.00;0.62;;;;;8.80;1.00;;;;;;2268004;61;1776;-85
2021/01/13 03:32:08;51229.00;0.17;89.31;0.00;0.00;0.62;;;;;8.60;1.00;;;;;;2272716;61;947;-86
2021/01/13 03:34:52;80146.00;0.27;139.29;0.00;0.00;0.62;;;;;8.10;1.00;;;;;;2276996;61;812;-85
2021/01/13 03:37:24;93347.00;0.31;162.09;0.00;0.00;0.62;;;;;7.60;1.00;;;;;;2269900;61;991;-86
2021/01/13 03:39:52;158802.00;0.53;274.98;0.00;0.00;0.62;;;;;7.40;1.00;;;;;;2276964;61;1459;-87
2021/01/13 03:42:22;567433.00;1.89;978.02;91985.00;0.31;159.74;;;;;7.20;1.00;;;;;;2276218;61;1028;-85
2021/01/13 03:44:50;641175.00;2.14;1105.37;89686.00;0.30;155.77;;;;;7.10;1.00;;;;;;2272338;61;1997;-85
2021/01/13 03:47:58;457823.00;1.53;789.24;84339.00;0.28;146.53;;;;;6.90;1.00;;;;;;2272441;61;1110;-85
2021/01/13 03:50:34;238311.00;0.79;411.85;45726.00;0.15;79.79;;;;;7.10;1.00;;;;;;2265065;61;1272;-85
2021/01/13 03:53:01;60010.00;0.20;104.49;0.00;0.00;0.62;;;;;7.30;1.00;;;;;;2271986;61;1181;-85
2021/01/13 03:55:30;104564.00;0.35;181.45;0.00;0.00;0.62;;;;;7.30;1.00;;;;;;2272331;61;1158;-86
2021/01/13 03:58:25;135501.00;0.45;234.81;0.00;0.00;0.62;;;;;7.30;1.00;;;;;;2272375;61;1564;-88
2021/01/13 04:01:02;104579.00;0.35;181.48;33106.00;0.11;57.96;;;;;7.10;1.00;;;;;;2272298;61;1337;-87
2021/01/13 04:03:31;59860.00;0.20;104.23;0.00;0.00;0.62;;;;;7.00;1.00;;;;;;2263689;61;1108;-88
2021/01/13 04:06:05;9370.00;0.03;16.86;0.00;0.00;0.62;;;;;6.80;1.00;;;;;;2276837;61;1986;-87
2021/01/13 04:08:40;208541.00;0.70;360.62;53374.00;0.18;93.02;;;;;6.50;1.00;;;;;;2276856;61;1126;-86
2021/01/13 04:11:10;52199.00;0.17;90.99;0.00;0.00;0.62;;;;;6.30;1.00;;;;;;2269551;61;1507;-86
2021/01/13 04:13:42;72170.00;0.24;125.51;0.00;0.00;0.62;;;;;6.00;1.00;;;;;;2269742;61;1049;-86
2021/01/13 04:16:11;108624.00;0.36;188.46;20792.00;0.07;36.64;;;;;5.90;1.00;;;;;;2269755;61;1141;-85
2021/01/13 04:18:39;218571.00;0.73;377.88;0.00;0.00;0.62;;;;;6.10;1.00;;;;;;2269712;61;1187;-85
2021/01/13 04:21:09;87973.00;0.29;152.81;0.00;0.00;0.62;;;;;6.00;1.00;;;;;;2276727;61;1471;-85
2021/01/13 04:23:36;0.00;0.00;0.62;0.00;0.00;0.62;;;;;6.10;1.00;;;;;;2276818;61;987;-86
2021/01/13 04:26:04;129740.00;0.43;224.88;0.00;0.00;0.62;;;;;6.10;1.00;;;;;;2276606;61;1907;-86
2021/01/13 04:28:31;13170.00;0.04;23.44;0.00;0.00;0.62;;;;;6.40;1.00;;;;;;2272221;61;1020;-86
2021/01/13 04:30:59;47649.00;0.16;83.12;0.00;0.00;0.62;;;;;6.60;1.00;;;;;;2268809;61;1421;-87
2021/01/13 04:33:26;0.00;0.00;0.62;0.00;0.00;0.62;;;;;7.00;1.00;;;;;;2272284;61;1053;-87
2021/01/13 04:35:54;106247.00;0.35;184.35;0.00;0.00;0.62;;;;;7.20;1.00;;;;;;2272328;61;1034;-88
2021/01/13 04:38:27;59185.00;0.20;103.07;0.00;0.00;0.62;;;;;7.10;1.00;;;;;;2272276;61;952;-88
2021/01/13 04:41:12;36961.00;0.12;64.63;0.00;0.00;0.62;;;;;7.00;1.00;;;;;;2272259;61;1358;-86
2021/01/13 04:43:53;68977.00;0.23;119.99;0.00;0.00;0.62;;;;;6.80;1.00;;;;;;2272232;61;1158;-85
2021/01/13 04:46:32;46932.00;0.16;81.88;0.00;0.00;0.62;;;;;6.70;1.00;;;;;;2267242;61;1911;-85
2021/01/13 04:49:07;147606.00;0.49;255.68;39114.00;0.13;68.36;;;;;6.90;1.00;;;;;;2276735;61;1448;-87
2021/01/13 04:51:36;3104.00;0.01;6.00;0.00;0.00;0.62;;;;;6.80;1.00;;;;;;2272870;61;999;-86
2021/01/13 04:54:07;39512.00;0.13;69.04;0.00;0.00;0.62;;;;;6.80;1.00;;;;;;2276665;61;928;-85
2021/01/13 04:57:11;0.00;0.00;0.62;0.00;0.00;0.62;;;;;6.50;1.00;;;;;;2276693;61;949;-86
2021/01/13 05:00:07;94441.00;0.31;163.98;10729.00;0.04;19.21;;;;;6.70;1.00;;;;;;2269558;61;1333;-85
2021/01/13 05:03:26;94960.00;0.32;164.87;0.00;0.00;0.62;;;;;6.50;1.00;;;;;;2276722;61;899;-87
2021/01/13 05:06:09;76720.00;0.26;133.37;0.00;0.00;0.62;;;;;6.50;1.00;;;;;;2276649;61;1912;-87
2021/01/13 05:08:40;10256.00;0.03;18.39;0.00;0.00;0.62;;;;;6.90;1.00;;;;;;2276593;61;1129;-88
2021/01/13 05:11:13;76093.00;0.25;132.29;5467.00;0.02;10.09;;;;;7.10;1.00;;;;;;2276109;61;1575;-87
2021/01/13 05:13:44;17572.00;0.06;31.07;0.00;0.00;0.62;;;;;7.00;1.00;;;;;;2276596;61;1008;-86
2021/01/13 05:16:13;11251.00;0.04;20.12;0.00;0.00;0.62;;;;;6.90;1.00;;;;;;2276083;61;1051;-87
2021/01/13 05:18:55;60784.00;0.20;105.83;0.00;0.00;0.62;;;;;7.10;1.00;;;;;;2276009;61;1663;-88
2021/01/13 05:21:25;0.00;0.00;0.62;0.00;0.00;0.62;;;;;7.00;1.00;;;;;;2259766;61;1094;-87
2021/01/13 05:23:53;12323.00;0.04;21.97;0.00;0.00;0.62;;;;;7.20;1.00;;;;;;2259918;61;988;-87
2021/01/13 05:26:22;46548.00;0.16;81.22;0.00;0.00;0.62;;;;;7.40;1.00;;;;;;2259943;61;1991;-87
2021/01/13 05:29:24;0.00;0.00;0.62;0.00;0.00;0.62;;;;;7.40;1.00;;;;;;2259733;61;1038;-86
2021/01/13 05:31:51;34448.00;0.11;60.28;0.00;0.00;0.62;;;;;7.30;1.00;;;;;;2259953;61;978;-87
2021/01/13 05:34:19;0.00;0.00;0.62;0.00;0.00;0.62;;;;;6.90;1.00;;;;;;2259066;61;983;-87
2021/01/13 05:37:16;25774.00;0.09;45.27;0.00;0.00;0.62;;;;;7.00;1.00;;;;;;2253271;61;996;-87
2021/01/13 05:39:44;171600.00;0.57;297.02;87491.00;0.29;151.98;;;;;7.20;1.00;;;;;;2253234;61;1462;-87
2021/01/13 05:42:14;45130.00;0.15;78.76;0.00;0.00;0.62;;;;;6.90;1.00;;;;;;2259745;61;1021;-89
2021/01/13 05:44:42;0.00;0.00;0.62;0.00;0.00;0.62;;;;;7.00;1.00;;;;;;2256538;61;1022;-90
2021/01/13 05:47:48;167817.00;0.56;290.51;29090.00;0.10;51.01;;;;;7.10;1.00;;;;;;2259893;61;948;-90
2021/01/13 05:50:18;406116.00;1.35;700.32;80810.00;0.27;140.44;;;;;7.10;1.00;;;;;;2259880;61;1361;-90
2021/01/13 05:52:47;554703.00;1.85;956.07;106712.00;0.36;185.16;;;;;6.60;1.00;;;;;;2259885;61;1010;-89
2021/01/13 05:55:16;438515.00;1.46;756.03;98065.00;0.33;170.23;;;;;6.70;1.00;;;;;;2259849;61;940;-90
2021/01/13 05:57:53;425624.00;1.42;733.86;92682.00;0.31;160.94;;;;;6.90;1.00;;;;;;2262941;61;1040;-88
2021/01/13 06:00:21;549286.00;1.83;946.73;89645.00;0.30;155.69;;;;;7.20;1.00;;;;;;2269233;61;1340;-90
2021/01/13 06:02:48;391014.00;1.30;674.36;87852.00;0.29;152.60;;;;;7.20;1.00;;;;;;2269218;61;986;-90
2021/01/13 06:05:16;580505.00;1.94;1000.57;89154.00;0.30;154.85;;;;;7.50;1.00;;;;;;2269301;61;1919;-89
2021/01/13 06:07:45;446265.00;1.49;769.36;89617.00;0.30;155.65;;;;;7.60;1.00;;;;;;2266028;61;949;-90
2021/01/13 06:10:13;316164.00;1.05;545.70;78480.00;0.26;136.41;;;;;7.60;1.00;;;;;;2269225;61;1339;-90
2021/01/13 06:12:46;468529.00;1.56;807.66;151852.00;0.51;263.00;;;;;7.30;1.00;;;;;;2267826;61;926;-89
2021/01/13 06:15:22;737524.00;2.46;1272.37;139820.00;0.47;242.26;;;;;7.40;1.00;;;;;;2267793;61;1013;-90
2021/01/13 06:17:51;460747.00;1.54;794.27;83444.00;0.28;144.99;;;;;7.80;1.00;;;;;;2259719;61;985;-90
2021/01/13 06:20:20;438089.00;1.46;755.30;77898.00;0.26;135.41;;;;;8.30;1.00;;;;;;2255622;61;1392;-90
2021/01/13 06:22:49;329485.00;1.10;568.60;86913.00;0.29;150.98;;;;;8.90;1.00;;;;;;2252309;61;1006;-88
2021/01/13 06:25:24;340091.00;1.13;586.83;99060.00;0.33;171.95;;;;;9.40;1.00;;;;;;2249087;61;1911;-89
2021/01/13 06:28:12;358474.00;1.19;618.43;90408.00;0.30;157.01;;;;;9.70;1.00;;;;;;2254214;61;1075;-89
2021/01/13 06:30:42;138380576.00;461.27;107389208.00;0.00;0.00;0.62;;;;;9.90;1.00;;;;;;2259678;61;1350;-87
2021/01/13 06:33:10;128783.00;0.43;223.23;0.00;0.00;0.62;;;;;9.90;1.00;;;;;;2263754;61;927;-87
2021/01/13 06:36:18;418747.00;1.40;722.04;115055.00;0.38;199.55;;;;;9.50;1.00;;;;;;2258120;61;1014;-89
2021/01/13 06:38:54;931669.00;3.11;1611.81;204252.00;0.68;353.24;;;;;9.30;1.00;;;;;;2258014;61;1034;-89
2021/01/13 06:41:20;232294.00;0.77;401.50;99918.00;0.33;173.43;;;;;8.60;1.00;;;;;;2257098;61;1013;-91
2021/01/13 06:44:04;352330.00;1.17;607.87;98271.00;0.33;170.59;;;;;7.60;1.00;;;;;;2256870;61;1027;-88
2021/01/13 06:46:33;519471.00;1.73;895.35;73623.00;0.25;128.02;;;;;7.30;1.00;;;;;;2256101;61;2031;-89
2021/01/13 06:49:13;430652.00;1.44;742.51;90214.00;0.30;156.68;;;;;7.30;1.00;;;;;;2250501;61;1452;-89
2021/01/13 06:51:44;447043.00;1.49;770.70;19441.00;0.06;34.30;;;;;7.20;1.00;;;;;;2260460;61;1021;-90
2021/01/13 06:54:15;337996.00;1.13;583.23;0.00;0.00;0.62;;;;;7.20;1.00;;;;;;2256173;61;1032;-90
2021/01/13 06:56:50;380375.00;1.27;656.07;10428.00;0.03;18.69;;;;;7.20;1.00;;;;;;2253615;61;935;-91
2021/01/13 06:59:18;179959.00;0.60;311.42;0.00;0.00;0.62;;;;;7.30;1.00;;;;;;2255601;61;1349;-89
2021/01/13 07:01:53;134367.00;0.45;232.86;0.00;0.00;0.62;;;;;7.30;1.00;;;;;;2260327;61;990;-89
2021/01/13 07:04:20;188837.00;0.63;326.71;34948.00;0.12;61.15;;;;;7.40;1.00;;;;;;2260466;61;934;-90
2021/01/13 07:07:05;0.00;0.00;0.62;0.00;0.00;0.62;;;;;7.20;1.00;;;;;;2260421;61;1928;-89
2021/01/13 07:09:36;20111.00;0.07;35.46;0.00;0.00;0.62;;;;;7.10;1.00;;;;;;2253727;61;1388;-90
2021/01/13 07:12:14;0.00;0.00;0.62;0.00;0.00;0.62;;;;;7.30;1.00;;;;;;2255156;61;964;-89
2021/01/13 07:14:42;174430.00;0.58;301.90;0.00;0.00;0.62;;;;;7.40;1.00;;;;;;2256081;61;972;-90
2021/01/13 07:17:13;0.00;0.00;0.62;0.00;0.00;0.62;;;;;7.50;1.00;;;;;;2262443;61;1017;-89
2021/01/13 07:19:45;47972.00;0.16;83.68;0.00;0.00;0.62;;;;;7.80;1.00;;;;;;2265710;61;1288;-88
2021/01/13 07:22:11;129517.00;0.43;224.50;0.00;0.00;0.62;;;;;7.70;1.00;;;;;;2272388;61;1010;-89
2021/01/13 07:24:38;66290.00;0.22;115.35;0.00;0.00;0.62;;;;;7.80;1.00;;;;;;2269094;61;1050;-89
2021/01/13 07:27:06;86905.00;0.29;150.96;0.00;0.00;0.62;;;;;8.20;1.00;;;;;;2268913;61;2021;-89
2021/01/13 07:29:33;24358.00;0.08;42.82;0.00;0.00;0.62;;;;;8.30;1.00;;;;;;2268196;61;1393;-91
2021/01/13 07:31:59;139758.00;0.47;242.15;0.00;0.00;0.62;;;;;8.20;1.00;;;;;;2268544;61;1024;-89
2021/01/13 07:34:35;200493.00;0.67;346.77;38395.00;0.13;67.11;;;;;7.90;1.00;;;;;;2268379;61;1093;-90
2021/01/13 07:37:05;30893.00;0.10;54.13;0.00;0.00;0.62;;;;;7.50;1.00;;;;;;2263036;61;965;-90
2021/01/13 07:40:11;67459.00;0.22;117.37;0.00;0.00;0.62;;;;;7.40;1.00;;;;;;2264222;61;1303;-90
2021/01/13 07:42:39;23288.00;0.08;40.96;0.00;0.00;0.62;;;;;6.90;1.00;;;;;;2264279;61;1106;-91
2021/01/13 07:45:08;242233.00;0.81;418.59;0.00;0.00;0.62;;;;;6.90;1.00;;;;;;2257577;61;1997;-89
2021/01/13 07:48:23;377859.00;1.26;651.75;44346.00;0.15;77.41;;;;;7.10;1.00;;;;;;2266342;61;946;-90
2021/01/13 07:51:10;53401.00;0.18;93.07;0.00;0.00;0.62;;;;;7.40;1.00;;;;;;2268287;61;1489;-90
2021/01/13 07:53:38;176582.00;0.59;305.60;0.00;0.00;0.62;;;;;7.90;1.00;;;;;;2261618;61;980;-87
2021/01/13 07:56:11;269060.00;0.90;464.73;28388.00;0.09;49.79;;;;;8.10;1.00;;;;;;2269047;61;1036;-91
2021/01/13 07:59:18;84664.00;0.28;147.09;0.00;0.00;0.62;;;;;8.50;1.00;;;;;;2269690;61;950;-89
2021/01/13 08:02:30;463897.00;1.55;799.69;0.00;0.00;0.62;;;;;8.80;1.00;;;;;;2260149;61;1037;-87
2021/01/13 08:05:47;248536.00;0.83;429.43;0.00;0.00;0.62;;;;;8.70;1.00;;;;;;2260227;61;1983;-87
2021/01/13 08:08:54;212724.00;0.71;367.82;0.00;0.00;0.62;;;;;8.60;1.00;;;;;;2252123;61;977;-89
2021/01/13 08:11:49;494179.00;1.65;851.80;172976.00;0.58;299.39;;;;;8.30;1.00;;;;;;2235673;62;1002;-89
2021/01/13 08:15:13;918060.00;3.06;1587.86;161072.00;0.54;278.89;;;;;8.20;1.00;;;;;;2232430;62;979;-89
2021/01/13 08:18:15;178836.00;0.60;309.49;0.00;0.00;0.62;;;;;8.10;1.00;;;;;;2220692;62;1011;-91
2021/01/13 08:22:00;;;;;;;;;;;;;;;;;;;;;
2021/01/13 08:24:43;263380.00;0.88;454.96;0.00;0.00;0.62;;;;;8.00;1.00;;;;;;2213667;62;1020;-90
2021/01/13 08:27:38;721601.00;2.41;1244.72;126637.00;0.42;219.53;;;;;7.90;1.00;;;;;;2216981;62;2008;-90
2021/01/13 08:30:20;172392.00;0.57;298.39;0.00;0.00;0.62;;;;;7.70;1.00;;;;;;2217422;62;1394;-90
2021/01/13 08:54:39;297370.00;0.99;513.40;29064.00;0.10;50.96;;;;;8.00;1.00;;;;;;2186174;63;1164;-89
2021/01/13 08:57:10;7333.00;0.02;13.33;0.00;0.00;0.62;;;;;7.70;1.00;;;;;;2186332;63;1079;-90
2021/01/13 08:59:40;0.00;0.00;0.62;0.00;0.00;0.62;;;;;7.00;1.00;;;;;;2188260;63;1434;-90
2021/01/13 09:02:11;234285.00;0.78;404.92;26990.00;0.09;47.37;;;;;7.00;1.00;;;;;;2204560;63;1018;-88
2021/01/13 09:04:51;228607.00;0.76;395.15;0.00;0.00;0.62;;;;;6.90;1.00;;;;;;2204365;63;985;-90
2021/01/13 09:07:21;218024.00;0.73;376.94;26586.00;0.09;46.67;;;;;6.70;1.00;;;;;;2201469;63;1926;-89
2021/01/13 09:09:58;154745.00;0.52;267.98;0.00;0.00;0.62;;;;;6.60;1.00;;;;;;2201390;63;1378;-89
2021/01/13 09:12:33;484828.00;1.62;835.71;49809.00;0.17;86.86;;;;;6.20;1.00;;;;;;2204995;62;990;-88
2021/01/13 09:15:15;169285.00;0.56;293.03;0.00;0.00;0.62;;;;;6.20;1.00;;;;;;2209024;62;1117;-90
2021/01/13 09:17:43;325.00;0.00;1.18;0.00;0.00;0.62;;;;;6.50;1.00;;;;;;2223458;62;993;-90
2021/01/13 09:20:19;373935.00;1.25;645.00;14906.00;0.05;26.45;;;;;6.80;1.00;;;;;;2218947;62;1348;-88
2021/01/13 09:22:50;118503.00;0.40;205.50;0.00;0.00;0.62;;;;;6.30;1.00;;;;;;2228525;62;1351;-88
2021/01/13 09:25:19;96152.00;0.32;166.93;0.00;0.00;0.62;;;;;6.00;1.00;;;;;;2238668;62;1906;-88
2021/01/13 09:27:48;188774.00;0.63;326.60;0.00;0.00;0.62;;;;;6.00;1.00;;;;;;2251703;61;954;-89
2021/01/13 09:30:36;355117.00;1.18;612.66;24164.00;0.08;42.48;;;;;5.90;1.00;;;;;;2255365;61;1414;-87
2021/01/13 09:33:07;0.00;0.00;0.62;0.00;0.00;0.62;;;;;6.10;1.00;;;;;;2263032;61;966;-86
2021/01/13 09:35:36;116460.00;0.39;201.98;0.00;0.00;0.62;;;;;6.20;1.00;;;;;;2263539;61;1691;-87
2021/01/13 09:38:06;58282.00;0.19;101.51;0.00;0.00;0.62;;;;;6.50;1.00;;;;;;2251966;61;938;-87
2021/01/13 09:40:54;135753.00;0.45;235.25;35279.00;0.12;61.72;;;;;7.00;1.00;;;;;;2248165;61;1291;-90
2021/01/13 09:43:34;102483.00;0.34;177.86;0.00;0.00;0.62;;;;;6.70;1.00;;;;;;2247988;61;939;-88
2021/01/13 09:46:03;0.00;0.00;0.62;0.00;0.00;0.62;;;;;6.40;1.00;;;;;;2237682;61;1912;-88
2021/01/13 09:48:32;81307.00;0.27;141.29;0.00;0.00;0.62;;;;;6.60;1.00;;;;;;2238460;62;983;-87
2021/01/13 09:51:05;100961.00;0.34;175.23;0.00;0.00;0.62;;;;;6.40;1.00;;;;;;2237804;62;1426;-88
2021/01/13 09:53:36;7566.00;0.03;13.73;0.00;0.00;0.62;;;;;6.60;1.00;;;;;;2236698;62;1002;-89
2021/01/13 09:56:09;171543.00;0.57;296.92;17882.00;0.06;31.60;;;;;6.90;1.00;;;;;;2245928;61;1103;-87
2021/01/13 09:58:38;21232.00;0.07;37.40;0.00;0.00;0.62;;;;;6.90;1.00;;;;;;2251845;61;995;-88
2021/01/13 10:01:09;335799.00;1.12;579.45;14600.00;0.05;25.92;;;;;7.10;1.00;;;;;;2252978;61;1475;-89
2021/01/13 10:03:36;26742.00;0.09;46.94;0.00;0.00;0.62;;;;;7.00;1.00;;;;;;2255890;61;1048;-89
2021/01/13 10:06:11;86960.00;0.29;151.06;0.00;0.00;0.62;;;;;7.00;1.00;;;;;;2252525;61;2015;-88
2021/01/13 10:08:38;64630.00;0.22;112.48;0.00;0.00;0.62;;;;;6.90;1.00;;;;;;2264991;61;1031;-88
2021/01/13 10:11:05;119020.00;0.40;206.39;0.00;0.00;0.62;;;;;6.80;1.00;;;;;;2267787;61;1376;-88
2021/01/13 10:13:34;203699.00;0.68;352.29;0.00;0.00;0.62;;;;;6.40;1.00;;;;;;2267953;61;1015;-90
2021/01/13 10:16:01;309537.00;1.03;534.31;0.00;0.00;0.62;;;;;6.40;1.00;;;;;;2257763;61;985;-90
2021/01/13 10:18:28;100718.00;0.34;174.81;0.00;0.00;0.62;;;;;6.50;1.00;;;;;;2263783;61;1125;-89
2021/01/13 10:20:55;582443.00;1.94;1003.91;0.00;0.00;0.62;;;;;6.20;1.00;;;;;;2263874;61;1436;-88
2021/01/13 10:23:26;500782.00;1.67;863.17;91560.00;0.31;159.00;;;;;6.10;1.00;;;;;;2263883;61;1076;-90
2021/01/13 10:26:04;431339.00;1.44;743.69;19039.00;0.06;33.61;;;;;6.30;1.00;;;;;;2260556;61;1998;-90
2021/01/13 10:28:30;226647.00;0.76;391.78;0.00;0.00;0.62;;;;;6.10;1.00;;;;;;2263819;61;927;-90
2021/01/13 10:30:58;359648.00;1.20;620.44;8178.00;0.03;14.79;;;;;6.20;1.00;;;;;;2257204;61;1362;-89
2021/01/13 10:33:47;263083.00;0.88;454.45;0.00;0.00;0.62;;;;;6.60;1.00;;;;;;2266809;61;950;-87
2021/01/13 10:36:39;50436.00;0.17;87.94;0.00;0.00;0.62;;;;;6.70;1.00;;;;;;2269307;61;975;-87
2021/01/13 10:39:10;128637.00;0.43;222.98;14838.00;0.05;26.33;;;;;6.30;1.00;;;;;;2276326;61;1379;-89
2021/01/13 10:41:37;167246.00;0.56;289.52;0.00;0.00;0.62;;;;;6.90;1.00;;;;;;2276375;61;1019;-89
2021/01/13 10:44:07;84562.00;0.28;146.92;0.00;0.00;0.62;;;;;6.70;1.00;;;;;;2269319;61;1006;-88
2021/01/13 10:46:49;81208.00;0.27;141.12;0.00;0.00;0.62;;;;;7.20;1.00;;;;;;2267794;61;2010;-88
2021/01/13 10:49:30;113346.00;0.38;196.60;0.00;0.00;0.62;;;;;7.70;1.00;;;;;;2257701;61;1436;-88
2021/01/13 10:51:58;0.00;0.00;0.62;0.00;0.00;0.62;;;;;7.70;1.00;;;;;;2263079;61;997;-88
2021/01/13 10:54:27;46359.00;0.15;80.89;0.00;0.00;0.62;;;;;7.50;1.00;;;;;;2264459;61;967;-89